createdAt,value
2017-10-28T00:01:31.480Z,10.63
2017-10-28T00:03:59.309Z,18.43
2017-10-28T00:06:27.165Z,19.03
2017-10-28T00:08:55.066Z,14.07
2017-10-28T00:11:22.944Z,25.10
2017-10-28T00:13:50.774Z,16.77
2017-10-28T00:16:18.609Z,11.47
2017-10-28T00:18:46.429Z,10.80
2017-10-28T00:21:14.319Z,12.53
2017-10-28T00:23:42.164Z,12.93
2017-10-28T00:26:09.993Z,12.57
2017-10-28T00:28:37.824Z,12.53
2017-10-28T00:31:11.814Z,12.57
2017-10-28T00:33:45.825Z,23.83
2017-10-28T00:36:13.725Z,7.13
2017-10-28T00:38:41.562Z,9.03
2017-10-28T00:41:09.394Z,4.50
2017-10-28T00:43:37.221Z,11.83
2017-10-28T00:46:05.118Z,14.03
2017-10-28T00:48:33.024Z,25.87
2017-10-28T00:51:00.828Z,9.30
2017-10-28T00:53:28.673Z,17.53
2017-10-28T00:55:56.504Z,16.30
2017-10-28T00:58:24.320Z,15.23
2017-10-28T01:00:52.157Z,7.13
2017-10-28T01:03:20.064Z,20.43
2017-10-28T01:05:47.931Z,19.50
2017-10-28T01:08:15.760Z,19.57
2017-10-28T01:10:43.586Z,11.17
2017-10-28T01:13:11.500Z,5.73
2017-10-28T01:15:39.369Z,10.57
2017-10-28T01:18:07.201Z,11.63
2017-10-28T01:20:35.016Z,7.90
2017-10-28T01:23:02.854Z,27.10
2017-10-28T01:25:30.696Z,23.00
2017-10-28T01:27:58.545Z,11.87
2017-10-28T01:30:26.346Z,21.17
2017-10-28T01:32:54.181Z,20.13
2017-10-28T01:35:22.036Z,16.70
2017-10-28T01:37:49.845Z,18.33
2017-10-28T01:40:17.648Z,16.47
2017-10-28T01:42:45.482Z,13.70
2017-10-28T01:45:13.311Z,17.77
2017-10-28T01:47:41.133Z,15.70
2017-10-28T01:50:08.952Z,9.93
2017-10-28T01:52:36.761Z,41.47
2017-10-28T01:55:04.588Z,25.40
2017-10-28T01:57:32.404Z,12.27
2017-10-28T02:00:00.221Z,15.03
2017-10-28T02:02:28.108Z,20.77
2017-10-28T02:04:55.984Z,12.47
2017-10-28T02:07:23.819Z,31.30
2017-10-28T02:09:51.628Z,9.00
2017-10-28T02:12:19.471Z,18.20
2017-10-28T02:14:47.345Z,14.80
2017-10-28T02:17:15.177Z,19.83
2017-10-28T02:19:43.010Z,21.93
2017-10-28T02:22:10.996Z,10.60
2017-10-28T02:24:38.866Z,12.50
2017-10-28T02:27:06.774Z,22.50
2017-10-28T02:29:34.639Z,6.13
2017-10-28T02:32:02.539Z,16.67
2017-10-28T02:34:30.434Z,17.03
2017-10-28T02:36:58.298Z,10.43
2017-10-28T02:39:26.156Z,11.33
2017-10-28T02:41:54.545Z,14.80
2017-10-28T02:44:22.405Z,16.00
2017-10-28T02:46:50.237Z,23.10
2017-10-28T02:49:18.057Z,12.40
2017-10-28T02:51:45.933Z,14.23
2017-10-28T02:54:13.833Z,9.00
2017-10-28T02:56:41.691Z,12.50
2017-10-28T02:59:09.571Z,15.00
2017-10-28T03:01:37.419Z,12.30
2017-10-28T03:04:05.287Z,5.67
2017-10-28T03:06:33.144Z,23.50
2017-10-28T03:09:01.018Z,8.43
2017-10-28T03:11:28.865Z,8.00
2017-10-28T03:13:56.705Z,12.27
2017-10-28T03:16:24.583Z,7.63
2017-10-28T03:18:52.588Z,16.00
2017-10-28T03:21:20.519Z,8.53
2017-10-28T03:23:48.569Z,10.20
2017-10-28T03:26:16.427Z,21.43
2017-10-28T03:28:44.259Z,20.10
2017-10-28T03:31:12.081Z,15.20
2017-10-28T03:33:39.911Z,21.50
2017-10-28T03:36:07.746Z,9.83
2017-10-28T03:38:35.628Z,15.03
2017-10-28T03:41:03.550Z,16.50
2017-10-28T03:43:31.485Z,30.23
2017-10-28T03:45:59.348Z,8.10
2017-10-28T03:48:27.204Z,7.73
2017-10-28T03:50:55.033Z,15.70
2017-10-28T03:53:22.882Z,8.37
2017-10-28T03:55:50.714Z,10.57
2017-10-28T03:58:18.546Z,19.93
2017-10-28T04:00:46.380Z,11.43
2017-10-28T04:03:14.212Z,14.27
2017-10-28T04:05:42.057Z,14.07
2017-10-28T04:08:09.902Z,26.27
2017-10-28T04:10:37.746Z,14.53
2017-10-28T04:13:05.612Z,12.40
2017-10-28T04:15:33.470Z,14.00
2017-10-28T04:18:01.284Z,21.23
2017-10-28T04:20:29.121Z,16.93
2017-10-28T04:22:56.999Z,6.80
2017-10-28T04:25:24.902Z,10.43
2017-10-28T04:27:52.740Z,9.93
2017-10-28T04:30:20.619Z,6.63
2017-10-28T04:32:48.482Z,20.50
2017-10-28T04:35:16.325Z,9.03
2017-10-28T04:37:44.181Z,15.63
2017-10-28T04:40:12.059Z,13.10
2017-10-28T04:42:39.897Z,13.77
2017-10-28T04:45:07.789Z,11.53
2017-10-28T04:47:35.688Z,17.17
2017-10-28T04:50:03.521Z,9.40
2017-10-28T04:52:31.420Z,7.40
2017-10-28T04:54:59.285Z,17.53
2017-10-28T04:57:27.127Z,9.93
2017-10-28T04:59:54.963Z,12.53
2017-10-28T05:02:22.825Z,18.67
2017-10-28T05:04:50.652Z,16.50
2017-10-28T05:07:18.473Z,6.23
2017-10-28T05:09:46.374Z,18.93
2017-10-28T05:12:14.240Z,16.80
2017-10-28T05:14:42.172Z,12.80
2017-10-28T05:17:10.054Z,13.90
2017-10-28T05:19:37.869Z,22.50
2017-10-28T05:22:05.721Z,7.47
2017-10-28T05:24:33.580Z,14.27
2017-10-28T05:27:01.460Z,9.30
2017-10-28T05:29:29.285Z,10.73
2017-10-28T05:31:57.094Z,6.83
2017-10-28T05:34:24.939Z,8.30
2017-10-28T05:36:52.766Z,20.20
2017-10-28T05:39:20.607Z,14.90
2017-10-28T05:41:48.487Z,7.80
2017-10-28T05:44:16.370Z,19.80
2017-10-28T05:46:44.272Z,13.80
2017-10-28T05:49:12.101Z,10.97
2017-10-28T05:51:39.925Z,12.90
2017-10-28T05:54:07.829Z,6.53
2017-10-28T05:56:35.874Z,19.80
2017-10-28T05:59:03.803Z,6.30
2017-10-28T06:01:31.661Z,20.63
2017-10-28T06:03:59.513Z,11.90
2017-10-28T06:06:27.356Z,20.20
2017-10-28T06:08:55.232Z,82.20
2017-10-28T06:11:23.115Z,13.60
2017-10-28T06:13:51.004Z,8.87
2017-10-28T06:16:18.827Z,15.50
2017-10-28T06:18:46.651Z,11.43
2017-10-28T06:21:14.473Z,17.83
2017-10-28T06:23:42.297Z,20.23
2017-10-28T06:26:10.152Z,18.20
2017-10-28T06:28:37.993Z,18.17
2017-10-28T06:31:05.845Z,7.43
2017-10-28T06:33:33.694Z,14.73
2017-10-28T06:36:01.554Z,14.97
2017-10-28T06:38:29.386Z,22.00
2017-10-28T06:40:57.259Z,8.20
2017-10-28T06:43:25.104Z,21.63
2017-10-28T06:45:52.966Z,16.23
2017-10-28T06:48:20.819Z,13.03
2017-10-28T06:50:48.663Z,14.77
2017-10-28T06:53:16.566Z,6.83
2017-10-28T06:55:44.396Z,13.73
2017-10-28T06:58:12.249Z,17.10
2017-10-28T07:00:40.073Z,19.53
2017-10-28T07:03:07.916Z,12.10
2017-10-28T07:05:35.802Z,9.90
2017-10-28T07:08:03.679Z,13.57
2017-10-28T07:10:31.545Z,14.70
2017-10-28T07:12:59.392Z,16.43
2017-10-28T07:15:27.212Z,13.30
2017-10-28T07:17:55.048Z,12.47
2017-10-28T07:20:22.917Z,10.30
2017-10-28T07:22:50.795Z,16.33
2017-10-28T07:25:18.624Z,15.63
2017-10-28T07:27:46.475Z,9.93
2017-10-28T07:30:14.366Z,10.67
2017-10-28T07:32:42.237Z,12.80
2017-10-28T07:35:10.060Z,22.43
2017-10-28T07:37:37.885Z,13.90
2017-10-28T07:40:05.739Z,6.27
2017-10-28T07:42:33.597Z,29.13
2017-10-28T07:45:01.418Z,16.17
2017-10-28T07:47:29.269Z,19.17
2017-10-28T07:49:57.119Z,9.87
2017-10-28T07:52:24.959Z,19.00
2017-10-28T07:54:52.797Z,14.60
2017-10-28T07:57:20.639Z,15.33
2017-10-28T07:59:48.465Z,9.47
2017-10-28T08:02:16.329Z,8.47
2017-10-28T08:04:44.197Z,18.33
2017-10-28T08:07:12.131Z,11.97
2017-10-28T08:09:39.995Z,19.27
2017-10-28T08:12:07.845Z,8.90
2017-10-28T08:14:35.652Z,16.47
2017-10-28T08:17:03.474Z,18.50
2017-10-28T08:19:31.322Z,16.80
2017-10-28T08:21:59.230Z,11.03
2017-10-28T08:24:27.057Z,26.30
2017-10-28T08:26:54.918Z,11.70
2017-10-28T08:29:22.776Z,26.20
2017-10-28T08:31:50.620Z,9.33
2017-10-28T08:34:18.481Z,8.83
2017-10-28T08:36:46.344Z,21.80
2017-10-28T08:39:14.254Z,15.53
2017-10-28T08:41:42.107Z,22.43
2017-10-28T08:44:09.953Z,24.57
2017-10-28T08:46:37.811Z,22.57
2017-10-28T08:49:05.634Z,28.83
2017-10-28T08:51:33.472Z,13.37
2017-10-28T08:54:01.386Z,19.80
2017-10-28T08:56:29.248Z,23.97
2017-10-28T08:58:57.146Z,15.63
2017-10-28T09:01:24.989Z,19.77
2017-10-28T09:03:52.821Z,11.37
2017-10-28T09:06:20.643Z,18.53
2017-10-28T09:08:48.464Z,20.17
2017-10-28T09:11:16.272Z,33.53
2017-10-28T09:13:44.103Z,19.07
2017-10-28T09:16:11.971Z,16.77
2017-10-28T09:18:39.953Z,17.80
2017-10-28T09:21:07.802Z,22.03
2017-10-28T09:23:35.643Z,18.10
2017-10-28T09:26:03.476Z,12.67
2017-10-28T09:28:31.293Z,17.27
2017-10-28T09:30:59.170Z,14.80
2017-10-28T09:33:27.073Z,22.67
2017-10-28T09:35:54.938Z,20.53
2017-10-28T09:38:22.788Z,22.93
2017-10-28T09:40:50.642Z,20.90
2017-10-28T09:43:18.499Z,20.37
2017-10-28T09:45:46.349Z,12.03
2017-10-28T09:48:14.180Z,15.83
2017-10-28T09:50:42.020Z,21.10
2017-10-28T09:53:09.845Z,21.87
2017-10-28T09:55:37.656Z,25.20
2017-10-28T09:58:05.489Z,17.30
2017-10-28T10:00:33.333Z,14.93
2017-10-28T10:03:01.157Z,20.70
2017-10-28T10:05:29.062Z,7.00
2017-10-28T10:07:56.895Z,16.10
2017-10-28T10:10:24.808Z,39.53
2017-10-28T10:12:52.644Z,31.97
2017-10-28T10:15:20.470Z,37.37
2017-10-28T10:17:48.282Z,23.70
2017-10-28T10:20:16.121Z,13.00
2017-10-28T10:22:43.958Z,19.30
2017-10-28T10:25:11.793Z,21.43
2017-10-28T10:27:39.649Z,36.70
2017-10-28T10:30:07.499Z,21.80
2017-10-28T10:32:35.325Z,26.43
2017-10-28T10:35:03.194Z,22.20
2017-10-28T10:37:31.064Z,19.70
2017-10-28T10:39:58.881Z,15.30
2017-10-28T10:42:26.701Z,35.57
2017-10-28T10:44:54.559Z,31.00
2017-10-28T10:47:22.421Z,26.73
2017-10-28T10:49:50.260Z,34.97
2017-10-28T10:52:18.082Z,35.77
2017-10-28T10:54:45.885Z,17.27
2017-10-28T10:57:13.713Z,31.60
2017-10-28T10:59:42.606Z,34.93
2017-10-28T11:02:10.417Z,37.87
2017-10-28T11:04:38.277Z,18.90
2017-10-28T11:07:06.161Z,25.53
2017-10-28T11:09:34.023Z,17.10
2017-10-28T11:12:01.879Z,32.53
2017-10-28T11:14:29.719Z,44.47
2017-10-28T11:16:57.562Z,28.30
2017-10-28T11:19:25.364Z,35.13
2017-10-28T11:21:53.205Z,14.00
2017-10-28T11:24:21.038Z,38.93
2017-10-28T11:26:48.917Z,36.30
2017-10-28T11:29:16.732Z,33.17
2017-10-28T11:31:44.545Z,28.00
2017-10-28T11:34:12.362Z,21.10
2017-10-28T11:36:40.238Z,20.43
2017-10-28T11:39:08.056Z,27.27
2017-10-28T11:41:35.965Z,19.00
2017-10-28T11:44:03.831Z,22.13
2017-10-28T11:46:31.657Z,30.00
2017-10-28T11:48:59.527Z,45.00
2017-10-28T11:51:27.387Z,36.53
2017-10-28T11:53:55.306Z,31.77
2017-10-28T11:56:23.161Z,47.07
2017-10-28T11:58:51.028Z,34.73
2017-10-28T12:01:18.872Z,36.40
2017-10-28T12:03:46.775Z,36.77
2017-10-28T12:06:14.640Z,26.57
2017-10-28T12:08:42.497Z,26.80
2017-10-28T12:11:10.363Z,29.77
2017-10-28T12:13:38.191Z,35.07
2017-10-28T12:16:06.138Z,39.77
2017-10-28T12:18:33.993Z,21.77
2017-10-28T12:21:01.863Z,35.53
2017-10-28T12:23:29.696Z,23.77
2017-10-28T12:25:57.537Z,54.10
2017-10-28T12:28:25.336Z,30.70
2017-10-28T12:30:53.827Z,36.97
2017-10-28T12:33:21.653Z,34.77
2017-10-28T12:35:49.533Z,40.53
2017-10-28T12:38:17.353Z,37.73
2017-10-28T12:40:45.191Z,24.60
2017-10-28T12:43:13.005Z,37.93
2017-10-28T12:45:40.824Z,32.30
2017-10-28T12:48:08.661Z,35.07
2017-10-28T12:50:36.505Z,39.27
2017-10-28T12:53:04.325Z,35.10
2017-10-28T12:55:32.176Z,36.10
2017-10-28T12:58:00.029Z,32.73
2017-10-28T13:00:27.852Z,32.40
2017-10-28T13:02:55.680Z,39.30
2017-10-28T13:05:23.548Z,39.20
2017-10-28T13:07:51.388Z,41.07
2017-10-28T13:10:19.396Z,24.23
2017-10-28T13:12:47.253Z,32.13
2017-10-28T13:15:15.077Z,34.33
2017-10-28T13:17:42.898Z,27.97
2017-10-28T13:20:10.738Z,42.63
2017-10-28T13:22:38.733Z,38.80
2017-10-28T13:25:06.570Z,43.90
2017-10-28T13:27:34.413Z,34.40
2017-10-28T13:30:02.272Z,37.00
2017-10-28T13:32:30.159Z,46.77
2017-10-28T13:34:57.967Z,38.10
2017-10-28T13:37:25.800Z,25.97
2017-10-28T13:39:53.697Z,27.27
2017-10-28T13:42:21.590Z,38.10
2017-10-28T13:44:49.404Z,36.17
2017-10-28T13:47:17.213Z,57.10
2017-10-28T13:49:45.041Z,33.73
2017-10-28T13:52:12.845Z,26.40
2017-10-28T13:54:40.692Z,28.60
2017-10-28T13:57:08.563Z,29.27
2017-10-28T13:59:36.478Z,44.47
2017-10-28T14:02:04.343Z,35.63
2017-10-28T14:04:32.155Z,39.80
2017-10-28T14:06:59.986Z,43.53
2017-10-28T14:09:27.798Z,28.60
2017-10-28T14:11:55.617Z,45.20
2017-10-28T14:14:23.425Z,41.03
2017-10-28T14:16:51.216Z,31.43
2017-10-28T14:19:19.095Z,30.90
2017-10-28T14:21:46.989Z,35.07
2017-10-28T14:24:14.849Z,40.40
2017-10-28T14:26:42.661Z,33.00
2017-10-28T14:29:10.484Z,28.03
2017-10-28T14:31:38.294Z,44.07
2017-10-28T14:34:06.138Z,24.40
2017-10-28T14:36:33.958Z,29.17
2017-10-28T14:39:01.842Z,26.80
2017-10-28T14:41:29.683Z,30.23
2017-10-28T14:43:57.550Z,41.33
2017-10-28T14:46:25.393Z,39.23
2017-10-28T14:48:53.266Z,36.07
2017-10-28T14:51:21.109Z,30.10
2017-10-28T14:53:48.935Z,33.67
2017-10-28T14:56:16.818Z,50.47
2017-10-28T14:58:44.629Z,41.77
2017-10-28T15:01:12.463Z,37.50
2017-10-28T15:03:40.274Z,39.23
2017-10-28T15:06:08.145Z,36.37
2017-10-28T15:08:35.977Z,50.30
2017-10-28T15:11:03.820Z,53.57
2017-10-28T15:13:31.650Z,36.83
2017-10-28T15:15:59.461Z,41.40
2017-10-28T15:18:27.285Z,38.70
2017-10-28T15:20:55.128Z,33.90
2017-10-28T15:23:22.953Z,40.07
2017-10-28T15:25:50.811Z,42.40
2017-10-28T15:28:18.648Z,38.43
2017-10-28T15:30:46.465Z,30.57
2017-10-28T15:33:14.299Z,42.70
2017-10-28T15:35:42.125Z,31.33
2017-10-28T15:38:09.965Z,43.87
2017-10-28T15:40:37.820Z,37.10
2017-10-28T15:43:05.640Z,33.47
2017-10-28T15:45:33.474Z,42.13
2017-10-28T15:48:01.336Z,39.13
2017-10-28T15:50:29.132Z,30.23
2017-10-28T15:52:56.945Z,50.13
2017-10-28T15:55:24.766Z,41.70
2017-10-28T15:57:52.583Z,43.93
2017-10-28T16:00:20.412Z,43.77
2017-10-28T16:02:48.259Z,42.00
2017-10-28T16:05:16.093Z,39.93
2017-10-28T16:07:43.929Z,26.93
2017-10-28T16:10:11.739Z,23.13
2017-10-28T16:12:40.304Z,32.50
2017-10-28T16:15:08.110Z,26.23
2017-10-28T16:17:35.912Z,22.73
2017-10-28T16:20:03.721Z,45.17
2017-10-28T16:22:31.520Z,17.20
2017-10-28T16:24:59.327Z,11.70
2017-10-28T16:27:27.137Z,19.03
2017-10-28T16:29:54.936Z,22.37
2017-10-28T16:32:22.740Z,19.67
2017-10-28T16:34:50.535Z,21.80
2017-10-28T16:37:18.360Z,30.03
2017-10-28T16:39:46.160Z,18.40
2017-10-28T16:42:13.952Z,18.83
2017-10-28T16:44:41.762Z,8.27
2017-10-28T16:47:09.578Z,12.23
2017-10-28T16:49:37.376Z,10.17
2017-10-28T16:52:05.179Z,11.27
2017-10-28T16:54:33.031Z,14.70
2017-10-28T16:57:00.829Z,20.20
2017-10-28T16:59:28.615Z,20.83
2017-10-28T17:01:56.414Z,14.67
2017-10-28T17:04:24.220Z,14.73
2017-10-28T17:06:52.007Z,21.10
2017-10-28T17:09:19.826Z,12.57
2017-10-28T17:11:47.625Z,20.83
2017-10-28T17:14:15.434Z,13.50
2017-10-28T17:16:43.256Z,20.70
2017-10-28T17:19:11.045Z,16.50
2017-10-28T17:21:38.861Z,17.60
2017-10-28T17:24:06.677Z,12.43
2017-10-28T17:26:34.473Z,27.50
2017-10-28T17:29:02.284Z,22.53
2017-10-28T17:31:30.109Z,19.37
2017-10-28T17:33:57.910Z,9.50
2017-10-28T17:36:25.716Z,17.23
2017-10-28T17:38:53.529Z,19.17
2017-10-28T17:41:21.336Z,8.20
2017-10-28T17:43:49.161Z,16.23
2017-10-28T17:46:16.969Z,11.53
2017-10-28T17:48:44.782Z,12.40
2017-10-28T17:51:12.584Z,9.33
2017-10-28T17:53:40.405Z,11.30
2017-10-28T17:56:08.222Z,10.87
2017-10-28T17:58:36.043Z,6.77
2017-10-28T18:01:03.869Z,7.53
2017-10-28T18:03:31.681Z,6.20
2017-10-28T18:05:59.509Z,6.20
2017-10-28T18:08:27.301Z,12.77
2017-10-28T18:10:55.137Z,10.37
2017-10-28T18:13:22.969Z,7.80
2017-10-28T18:15:50.806Z,12.20
2017-10-28T18:18:18.610Z,8.37
2017-10-28T18:20:46.427Z,12.43
2017-10-28T18:23:14.217Z,7.30
2017-10-28T18:25:42.008Z,15.43
2017-10-28T18:28:09.805Z,7.43
2017-10-28T18:30:37.639Z,3.07
2017-10-28T18:33:05.464Z,11.83
2017-10-28T18:35:33.270Z,9.33
2017-10-28T18:38:01.089Z,3.50
2017-10-28T18:40:28.903Z,6.73
2017-10-28T18:42:56.721Z,4.37
2017-10-28T18:45:24.521Z,14.13
2017-10-28T18:47:52.326Z,9.67
2017-10-28T18:50:20.103Z,3.80
2017-10-28T18:52:47.912Z,4.27
2017-10-28T18:55:15.702Z,3.67
2017-10-28T18:57:43.489Z,5.17
2017-10-28T19:00:11.265Z,7.43
2017-10-28T19:02:39.078Z,13.07
2017-10-28T19:05:06.872Z,12.10
2017-10-28T19:07:34.684Z,28.93
2017-10-28T19:10:02.474Z,13.30
2017-10-28T19:12:30.290Z,7.13
2017-10-28T19:14:58.125Z,12.43
2017-10-28T19:17:25.917Z,15.37
2017-10-28T19:19:53.704Z,9.33
2017-10-28T19:22:21.527Z,6.80
2017-10-28T19:24:49.344Z,17.00
2017-10-28T19:27:17.189Z,9.83
2017-10-28T19:29:45.022Z,8.40
2017-10-28T19:32:12.851Z,14.83
2017-10-28T19:34:40.657Z,11.20
2017-10-28T19:37:08.461Z,9.70
2017-10-28T19:39:36.287Z,6.87
2017-10-28T19:42:04.113Z,11.70
2017-10-28T19:44:31.924Z,12.43
2017-10-28T19:46:59.787Z,9.33
2017-10-28T19:49:27.655Z,11.03
2017-10-28T19:51:55.446Z,17.57
2017-10-28T19:54:23.244Z,7.77
2017-10-28T19:56:51.054Z,16.80
2017-10-28T19:59:18.846Z,7.47
2017-10-28T20:01:46.644Z,5.10
2017-10-28T20:04:14.437Z,22.13
2017-10-28T20:06:42.223Z,10.23
2017-10-28T20:09:10.009Z,6.17
2017-10-28T20:11:37.804Z,6.37
2017-10-28T20:14:05.593Z,11.43
2017-10-28T20:16:33.384Z,9.73
2017-10-28T20:19:01.176Z,19.13
2017-10-28T20:21:28.981Z,14.20
2017-10-28T20:23:56.774Z,14.83
2017-10-28T20:26:24.549Z,7.93
2017-10-28T20:28:52.320Z,18.10
2017-10-28T20:31:20.096Z,20.00
2017-10-28T20:33:47.868Z,9.60
2017-10-28T20:36:15.673Z,25.27
2017-10-28T20:38:43.485Z,24.50
2017-10-28T20:41:11.299Z,27.13
2017-10-28T20:43:39.100Z,20.77
2017-10-28T20:46:06.876Z,21.80
2017-10-28T20:48:34.659Z,18.83
2017-10-28T20:51:02.458Z,17.13
2017-10-28T20:53:30.274Z,16.17
2017-10-28T20:55:58.072Z,17.13
2017-10-28T20:58:25.864Z,15.73
2017-10-28T21:00:53.654Z,20.20
2017-10-28T21:03:21.495Z,29.10
2017-10-28T21:05:49.287Z,21.50
2017-10-28T21:08:17.070Z,13.30
2017-10-28T21:10:44.852Z,23.50
2017-10-28T21:13:12.645Z,22.47
2017-10-28T21:15:40.424Z,13.00
2017-10-28T21:18:08.215Z,24.80
2017-10-28T21:20:35.997Z,28.30
2017-10-28T21:23:03.804Z,15.07
2017-10-28T21:25:31.601Z,27.73
2017-10-28T21:27:59.406Z,27.60
2017-10-28T21:30:27.181Z,21.83
2017-10-28T21:32:54.997Z,19.83
2017-10-28T21:35:22.774Z,25.27
2017-10-28T21:37:50.561Z,23.70
2017-10-28T21:40:18.374Z,20.53
2017-10-28T21:42:46.188Z,26.40
2017-10-28T21:45:14.000Z,25.20
2017-10-28T21:47:41.809Z,18.23
2017-10-28T21:50:09.618Z,19.57
2017-10-28T21:52:37.414Z,28.40
2017-10-28T21:55:05.222Z,22.40
2017-10-28T21:57:33.040Z,28.83
2017-10-28T22:00:00.840Z,40.73
2017-10-28T22:02:28.624Z,9.37
2017-10-28T22:04:56.452Z,23.43
2017-10-28T22:07:24.261Z,25.97
2017-10-28T22:09:52.065Z,19.47
2017-10-28T22:12:19.876Z,25.03
2017-10-28T22:14:47.704Z,27.77
2017-10-28T22:17:15.513Z,35.97
2017-10-28T22:19:43.409Z,20.77
2017-10-28T22:22:11.222Z,24.30
2017-10-28T22:24:39.009Z,30.53
2017-10-28T22:27:06.801Z,20.60
2017-10-28T22:29:34.604Z,24.17
2017-10-28T22:32:02.409Z,23.93
2017-10-28T22:34:30.248Z,31.70
2017-10-28T22:36:58.087Z,24.60
2017-10-28T22:39:25.988Z,36.10
2017-10-28T22:41:53.789Z,28.53
2017-10-28T22:44:21.634Z,41.00
2017-10-28T22:46:49.498Z,40.97
2017-10-28T22:49:17.352Z,18.77
2017-10-28T22:51:45.153Z,36.30
2017-10-28T22:54:13.008Z,25.97
2017-10-28T22:56:40.817Z,27.03
2017-10-28T22:59:08.684Z,24.47
2017-10-28T23:01:36.513Z,30.43
2017-10-28T23:04:04.324Z,29.83
2017-10-28T23:06:32.175Z,28.43
2017-10-28T23:09:00.009Z,31.60
2017-10-28T23:11:27.848Z,32.80
2017-10-28T23:13:55.707Z,31.30
2017-10-28T23:16:23.560Z,27.80
2017-10-28T23:18:51.407Z,25.80
2017-10-28T23:21:19.253Z,27.67
2017-10-28T23:23:47.104Z,20.30
2017-10-28T23:26:14.953Z,17.07
2017-10-28T23:28:42.792Z,23.90
2017-10-28T23:31:10.641Z,23.30
2017-10-28T23:33:38.484Z,30.53
2017-10-28T23:36:06.268Z,28.73
2017-10-28T23:38:35.113Z,26.03
2017-10-28T23:41:02.966Z,23.80
2017-10-28T23:43:30.779Z,39.33
2017-10-28T23:45:58.594Z,22.03
2017-10-28T23:48:26.409Z,27.83
2017-10-28T23:50:54.232Z,21.30
2017-10-28T23:53:22.039Z,21.33
2017-10-28T23:55:49.873Z,26.90
2017-10-28T23:58:17.716Z,28.73
